createdAt,value
2019-04-06T00:00:31.045Z,8.10
2019-04-06T00:03:01.227Z,8.10
2019-04-06T00:05:31.518Z,8.00
2019-04-06T00:08:01.585Z,8.00
2019-04-06T00:10:32.862Z,8.00
2019-04-06T00:13:02.931Z,8.00
2019-04-06T00:15:33.089Z,7.90
2019-04-06T00:18:03.350Z,7.90
2019-04-06T00:20:33.612Z,7.90
2019-04-06T00:23:03.838Z,7.80
2019-04-06T00:25:43.747Z,7.80
2019-04-06T00:28:07.203Z,7.70
2019-04-06T00:30:56.609Z,7.70
2019-04-06T00:33:27.282Z,7.60
2019-04-06T00:35:57.443Z,7.60
2019-04-06T00:38:27.651Z,7.50
2019-04-06T00:40:57.830Z,7.40
2019-04-06T00:43:27.990Z,7.30
2019-04-06T00:45:58.137Z,7.30
2019-04-06T00:48:28.306Z,7.30
2019-04-06T00:50:58.549Z,7.20
2019-04-06T00:53:28.723Z,7.20
2019-04-06T00:55:58.904Z,7.10
2019-04-06T00:58:29.052Z,7.10
2019-04-06T01:00:59.222Z,7.00
2019-04-06T01:03:29.277Z,7.00
2019-04-06T01:05:59.418Z,7.00
2019-04-06T01:08:29.621Z,6.90
2019-04-06T01:10:59.843Z,6.90
2019-04-06T01:13:30.015Z,6.90
2019-04-06T01:16:01.423Z,6.90
2019-04-06T01:18:31.507Z,6.80
2019-04-06T01:21:02.764Z,6.80
2019-04-06T01:23:32.870Z,6.80
2019-04-06T01:26:07.361Z,6.70
2019-04-06T01:28:34.722Z,6.70
2019-04-06T01:31:04.833Z,6.70
2019-04-06T01:33:34.956Z,6.60
2019-04-06T01:36:05.077Z,6.60
2019-04-06T01:38:35.236Z,6.60
2019-04-06T01:41:05.542Z,6.60
2019-04-06T01:43:35.649Z,6.50
2019-04-06T01:46:05.888Z,6.50
2019-04-06T01:48:36.127Z,6.40
2019-04-06T01:51:06.321Z,6.40
2019-04-06T01:53:36.397Z,6.40
2019-04-06T01:56:17.882Z,6.40
2019-04-06T01:58:39.470Z,6.40
2019-04-06T02:01:21.491Z,6.30
2019-04-06T02:03:51.881Z,6.30
2019-04-06T02:06:22.110Z,6.30
2019-04-06T02:08:52.225Z,6.30
2019-04-06T02:11:22.363Z,6.20
2019-04-06T02:13:52.654Z,6.20
2019-04-06T02:16:22.785Z,6.20
2019-04-06T02:18:53.020Z,6.10
2019-04-06T02:21:23.583Z,6.10
2019-04-06T02:23:53.825Z,6.10
2019-04-06T02:26:30.421Z,6.10
2019-04-06T02:28:55.937Z,6.10
2019-04-06T02:31:45.054Z,6.10
2019-04-06T02:34:52.685Z,6.10
2019-04-06T02:37:41.175Z,6.10
2019-04-06T02:40:21.418Z,6.00
2019-04-06T02:42:59.201Z,6.00
2019-04-06T02:45:29.353Z,6.00
2019-04-06T02:47:59.479Z,6.00
2019-04-06T02:50:29.561Z,5.90
2019-04-06T02:52:59.738Z,5.90
2019-04-06T02:55:30.418Z,5.90
2019-04-06T02:58:00.773Z,6.00
2019-04-06T03:00:30.936Z,5.90
2019-04-06T03:03:01.136Z,5.90
2019-04-06T03:05:31.852Z,5.90
2019-04-06T03:08:02.022Z,5.90
2019-04-06T03:10:32.335Z,5.80
2019-04-06T03:13:02.569Z,5.80
2019-04-06T03:15:34.466Z,5.80
2019-04-06T03:18:04.766Z,5.80
2019-04-06T03:20:35.218Z,5.70
2019-04-06T03:23:05.441Z,5.70
2019-04-06T03:25:35.647Z,5.70
2019-04-06T03:28:05.781Z,5.70
2019-04-06T03:30:35.912Z,5.60
2019-04-06T03:33:06.221Z,5.60
2019-04-06T03:35:36.421Z,5.60
2019-04-06T03:38:06.638Z,5.50
2019-04-06T03:40:36.785Z,5.50
2019-04-06T03:43:06.867Z,5.50
2019-04-06T03:45:37.216Z,5.40
2019-04-06T03:48:07.576Z,5.40
2019-04-06T03:50:37.808Z,5.30
2019-04-06T03:53:08.080Z,5.30
2019-04-06T03:55:38.238Z,5.30
2019-04-06T03:58:08.636Z,5.30
2019-04-06T04:00:38.778Z,5.30
2019-04-06T04:03:09.215Z,5.30
2019-04-06T04:05:39.465Z,5.30
2019-04-06T04:08:09.575Z,5.20
2019-04-06T04:10:39.957Z,5.20
2019-04-06T04:13:10.164Z,5.20
2019-04-06T04:15:40.360Z,5.20
2019-04-06T04:18:11.751Z,5.20
2019-04-06T04:20:43.068Z,5.20
2019-04-06T04:23:13.214Z,5.20
2019-04-06T04:25:43.285Z,5.20
2019-04-06T04:28:13.516Z,5.20
2019-04-06T04:30:43.775Z,5.20
2019-04-06T04:33:14.107Z,5.20
2019-04-06T04:35:44.362Z,5.40
2019-04-06T04:38:14.565Z,5.40
2019-04-06T04:40:44.702Z,5.40
2019-04-06T04:43:14.852Z,5.50
2019-04-06T04:45:45.019Z,5.50
2019-04-06T04:48:15.270Z,5.60
2019-04-06T04:50:45.662Z,5.60
2019-04-06T04:53:15.833Z,5.70
2019-04-06T04:55:45.980Z,5.70
2019-04-06T04:58:16.121Z,5.80
2019-04-06T05:00:46.393Z,5.80
2019-04-06T05:03:16.882Z,5.90
2019-04-06T05:05:47.177Z,6.00
2019-04-06T05:08:17.410Z,6.00
2019-04-06T05:10:47.538Z,6.10
2019-04-06T05:13:17.755Z,6.30
2019-04-06T05:16:10.334Z,6.50
2019-04-06T05:18:41.376Z,6.60
2019-04-06T05:21:12.125Z,6.80
2019-04-06T05:23:43.395Z,6.90
2019-04-06T05:26:13.593Z,7.00
2019-04-06T05:28:43.646Z,7.10
2019-04-06T05:31:13.689Z,7.20
2019-04-06T05:33:43.792Z,7.30
2019-04-06T05:36:14.100Z,7.40
2019-04-06T05:38:44.227Z,7.50
2019-04-06T05:41:14.470Z,7.70
2019-04-06T05:43:44.618Z,7.80
2019-04-06T05:46:14.822Z,8.00
2019-04-06T05:48:45.173Z,8.10
2019-04-06T05:51:15.417Z,8.10
2019-04-06T05:53:45.534Z,8.30
2019-04-06T05:56:15.819Z,8.40
2019-04-06T05:58:45.936Z,8.50
2019-04-06T06:01:16.311Z,8.60
2019-04-06T06:03:46.665Z,8.70
2019-04-06T06:06:16.814Z,8.90
2019-04-06T06:08:46.992Z,9.00
2019-04-06T06:11:17.213Z,9.10
2019-04-06T06:13:47.458Z,9.20
2019-04-06T06:16:17.542Z,9.30
2019-04-06T06:18:47.718Z,9.30
2019-04-06T06:21:17.857Z,9.50
2019-04-06T06:23:48.060Z,9.60
2019-04-06T06:26:18.135Z,9.80
2019-04-06T06:28:48.353Z,9.90
2019-04-06T06:31:18.585Z,10.00
2019-04-06T06:33:48.872Z,10.00
2019-04-06T06:36:18.998Z,10.20
2019-04-06T06:38:49.228Z,10.40
2019-04-06T06:41:19.492Z,10.40
2019-04-06T06:43:49.621Z,10.60
2019-04-06T06:46:19.714Z,10.70
2019-04-06T06:48:49.937Z,10.80
2019-04-06T06:51:20.034Z,11.00
2019-04-06T06:53:50.126Z,11.10
2019-04-06T06:56:21.294Z,11.30
2019-04-06T06:58:51.611Z,11.50
2019-04-06T07:01:21.810Z,11.60
2019-04-06T07:03:51.891Z,11.70
2019-04-06T07:06:22.091Z,11.80
2019-04-06T07:08:52.425Z,11.80
2019-04-06T07:11:22.626Z,11.90
2019-04-06T07:13:52.970Z,12.00
2019-04-06T07:16:23.098Z,12.40
2019-04-06T07:18:53.325Z,12.50
2019-04-06T07:21:23.546Z,12.80
2019-04-06T07:23:53.746Z,12.90
2019-04-06T07:26:23.953Z,13.00
2019-04-06T07:28:54.109Z,13.30
2019-04-06T07:31:24.382Z,13.40
2019-04-06T07:33:54.593Z,13.30
2019-04-06T07:36:24.777Z,13.40
2019-04-06T07:38:55.012Z,13.70
2019-04-06T07:41:25.250Z,13.80
2019-04-06T07:43:55.462Z,13.90
2019-04-06T07:46:25.671Z,13.90
2019-04-06T07:48:55.763Z,14.10
2019-04-06T07:51:25.897Z,14.20
2019-04-06T07:53:55.975Z,14.20
2019-04-06T07:56:26.321Z,14.20
2019-04-06T07:58:56.433Z,14.10
2019-04-06T08:01:26.615Z,14.20
2019-04-06T08:03:56.936Z,14.40
2019-04-06T08:06:27.064Z,14.50
2019-04-06T08:08:57.289Z,14.60
2019-04-06T08:11:27.614Z,14.50
2019-04-06T08:13:57.795Z,14.50
2019-04-06T08:16:28.160Z,14.70
2019-04-06T08:18:58.682Z,14.80
2019-04-06T08:21:29.208Z,15.10
2019-04-06T08:23:59.475Z,15.30
2019-04-06T08:26:29.704Z,15.30
2019-04-06T08:29:02.241Z,15.40
2019-04-06T08:31:31.853Z,15.60
2019-04-06T08:34:02.007Z,15.70
2019-04-06T08:36:32.380Z,15.90
2019-04-06T08:39:02.485Z,16.00
2019-04-06T08:41:34.370Z,15.80
2019-04-06T08:44:04.949Z,16.10
2019-04-06T08:46:35.119Z,16.30
2019-04-06T08:49:05.244Z,16.30
2019-04-06T08:51:35.520Z,16.50
2019-04-06T08:54:05.717Z,16.80
2019-04-06T08:56:35.803Z,16.80
2019-04-06T08:59:11.243Z,16.60
2019-04-06T09:01:37.817Z,16.90
2019-04-06T09:04:08.055Z,17.10
2019-04-06T09:06:38.116Z,17.20
2019-04-06T09:09:08.391Z,17.40
2019-04-06T09:11:38.606Z,17.40
2019-04-06T09:14:09.133Z,17.60
2019-04-06T09:16:39.464Z,17.70
2019-04-06T09:19:09.952Z,17.90
2019-04-06T09:21:40.349Z,17.90
2019-04-06T09:24:10.571Z,17.70
2019-04-06T09:26:40.733Z,17.70
2019-04-06T09:29:21.889Z,17.80
2019-04-06T09:31:42.811Z,17.70
2019-04-06T09:34:12.993Z,17.60
2019-04-06T09:36:43.137Z,17.50
2019-04-06T09:39:13.235Z,17.60
2019-04-06T09:41:43.559Z,17.90
2019-04-06T09:44:22.851Z,17.90
2019-04-06T09:47:01.948Z,18.00
2019-04-06T09:49:42.376Z,18.40
2019-04-06T09:52:40.608Z,18.30
2019-04-06T09:55:22.875Z,18.20
2019-04-06T09:58:18.766Z,18.10
2019-04-06T10:01:00.466Z,18.20
2019-04-06T10:03:52.257Z,18.20
2019-04-06T10:06:34.747Z,18.60
2019-04-06T10:09:33.257Z,18.70
2019-04-06T10:12:29.161Z,18.60
2019-04-06T10:15:18.422Z,19.10
2019-04-06T10:18:09.252Z,19.10
2019-04-06T10:21:01.167Z,19.00
2019-04-06T10:23:50.545Z,18.60
2019-04-06T10:26:45.879Z,18.90
2019-04-06T10:29:34.053Z,18.70
2019-04-06T10:32:23.239Z,19.30
2019-04-06T10:35:05.039Z,19.80
2019-04-06T10:37:46.116Z,19.70
2019-04-06T10:40:34.318Z,19.60
2019-04-06T10:43:41.673Z,19.20
2019-04-06T10:46:33.773Z,19.30
2019-04-06T10:49:25.913Z,19.50
2019-04-06T10:52:07.006Z,19.20
2019-04-06T10:54:56.151Z,19.20
2019-04-06T10:57:47.953Z,19.20
2019-04-06T11:00:29.012Z,19.30
2019-04-06T11:03:07.142Z,19.80
2019-04-06T11:06:04.994Z,20.00
2019-04-06T11:08:48.229Z,20.40
2019-04-06T11:11:32.571Z,19.90
2019-04-06T11:14:17.825Z,20.20
2019-04-06T11:17:05.605Z,20.10
2019-04-06T11:19:57.810Z,20.00
2019-04-06T11:22:49.915Z,19.70
2019-04-06T11:25:37.515Z,19.50
2019-04-06T11:28:20.421Z,20.10
2019-04-06T11:31:14.627Z,20.50
2019-04-06T11:34:03.854Z,20.40
2019-04-06T11:36:59.109Z,20.10
2019-04-06T11:39:43.789Z,19.90
2019-04-06T11:42:19.722Z,19.90
2019-04-06T11:45:13.639Z,19.90
2019-04-06T11:48:01.612Z,19.90
2019-04-06T11:50:50.717Z,20.20
2019-04-06T11:53:28.165Z,20.20
2019-04-06T11:56:05.758Z,19.60
2019-04-06T11:58:47.124Z,19.40
2019-04-06T12:01:23.797Z,19.30
2019-04-06T12:04:10.242Z,19.50
2019-04-06T12:06:54.952Z,19.90
2019-04-06T12:09:36.390Z,20.00
2019-04-06T12:12:14.952Z,19.80
2019-04-06T12:15:16.472Z,19.80
2019-04-06T12:18:05.366Z,19.60
2019-04-06T12:20:57.521Z,19.70
2019-04-06T12:23:52.737Z,19.70
2019-04-06T12:26:47.807Z,19.60
2019-04-06T12:29:48.577Z,20.10
2019-04-06T12:32:41.417Z,20.70
2019-04-06T12:35:28.334Z,20.20
2019-04-06T12:38:05.161Z,20.60
2019-04-06T12:40:47.167Z,20.80
2019-04-06T12:43:45.449Z,20.90
2019-04-06T12:46:37.668Z,20.40
2019-04-06T12:49:16.730Z,20.20
2019-04-06T12:51:54.036Z,20.10
2019-04-06T12:55:01.949Z,19.60
2019-04-06T12:57:45.086Z,19.40
2019-04-06T13:00:22.143Z,20.00
2019-04-06T13:03:10.585Z,19.80
2019-04-06T13:05:49.516Z,19.60
2019-04-06T13:08:38.718Z,19.60
2019-04-06T13:11:31.120Z,19.70
2019-04-06T13:14:12.334Z,19.80
2019-04-06T13:17:04.314Z,20.20
2019-04-06T13:19:56.177Z,19.90
2019-04-06T13:22:51.350Z,19.50
2019-04-06T13:25:39.058Z,19.30
2019-04-06T13:28:28.593Z,19.20
2019-04-06T13:31:36.838Z,19.40
2019-04-06T13:34:41.425Z,19.40
2019-04-06T13:37:33.622Z,19.30
2019-04-06T13:40:18.303Z,19.40
2019-04-06T13:43:16.821Z,19.70
2019-04-06T13:46:09.354Z,19.50
2019-04-06T13:48:57.151Z,19.70
2019-04-06T13:51:45.059Z,19.70
2019-04-06T13:54:35.453Z,19.20
2019-04-06T13:57:17.738Z,19.00
2019-04-06T14:00:05.714Z,19.00
2019-04-06T14:02:58.401Z,19.40
2019-04-06T14:05:56.521Z,19.70
2019-04-06T14:08:42.614Z,19.50
2019-04-06T14:11:30.737Z,19.50
2019-04-06T14:14:16.853Z,19.80
2019-04-06T14:16:56.655Z,19.40
2019-04-06T14:19:44.935Z,19.20
2019-04-06T14:22:41.765Z,19.10
2019-04-06T14:25:25.373Z,19.20
2019-04-06T14:28:33.173Z,19.30
2019-04-06T14:31:34.437Z,19.40
2019-04-06T14:34:32.871Z,19.40
2019-04-06T14:37:21.221Z,19.40
2019-04-06T14:40:09.338Z,19.50
2019-04-06T14:42:53.958Z,19.10
2019-04-06T14:45:41.159Z,18.70
2019-04-06T14:48:19.036Z,18.70
2019-04-06T14:51:14.406Z,18.40
2019-04-06T14:53:57.045Z,18.20
2019-04-06T14:56:36.720Z,18.20
2019-04-06T14:59:26.782Z,18.10
2019-04-06T15:02:14.257Z,18.10
2019-04-06T15:05:03.285Z,17.90
2019-04-06T15:07:49.341Z,17.80
2019-04-06T15:10:29.703Z,17.80
2019-04-06T15:13:07.297Z,17.60
2019-04-06T15:15:59.750Z,17.50
2019-04-06T15:18:40.288Z,17.40
2019-04-06T15:21:27.714Z,17.40
2019-04-06T15:24:17.583Z,17.40
2019-04-06T15:27:05.877Z,17.30
2019-04-06T15:29:54.184Z,17.20
2019-04-06T15:32:30.570Z,17.10
2019-04-06T15:35:29.014Z,17.00
2019-04-06T15:38:36.333Z,16.90
2019-04-06T15:41:18.673Z,16.90
2019-04-06T15:44:20.152Z,16.70
2019-04-06T15:47:01.098Z,16.60
2019-04-06T15:49:56.512Z,16.60
2019-04-06T15:53:10.037Z,16.50
2019-04-06T15:55:59.293Z,16.40
2019-04-06T15:58:38.119Z,16.40
2019-04-06T16:01:30.216Z,16.30
2019-04-06T16:04:19.410Z,16.20
2019-04-06T16:06:57.846Z,16.10
2019-04-06T16:09:59.165Z,16.10
2019-04-06T16:12:38.034Z,16.10
2019-04-06T16:15:15.863Z,16.00
2019-04-06T16:18:04.264Z,15.90
2019-04-06T16:20:53.506Z,15.80
2019-04-06T16:23:38.427Z,15.90
2019-04-06T16:26:16.955Z,15.80
2019-04-06T16:29:04.475Z,15.70
2019-04-06T16:32:10.484Z,15.60
2019-04-06T16:34:53.456Z,15.60
2019-04-06T16:37:30.922Z,15.60
2019-04-06T16:40:18.783Z,15.60
2019-04-06T16:43:11.002Z,15.60
2019-04-06T16:45:59.091Z,15.50
2019-04-06T16:49:03.075Z,15.30
2019-04-06T16:51:45.490Z,15.30
2019-04-06T16:54:37.323Z,15.20
2019-04-06T16:57:35.468Z,15.10
2019-04-06T17:00:25.872Z,15.00
2019-04-06T17:03:20.996Z,15.00
2019-04-06T17:06:08.853Z,14.90
2019-04-06T17:08:58.785Z,14.80
2019-04-06T17:11:48.033Z,14.80
2019-04-06T17:14:35.994Z,14.70
2019-04-06T17:17:31.408Z,14.60
2019-04-06T17:20:19.730Z,14.50
2019-04-06T17:23:07.702Z,14.30
2019-04-06T17:26:02.836Z,14.20
2019-04-06T17:28:42.325Z,14.10
2019-04-06T17:31:30.323Z,14.00
2019-04-06T17:34:22.231Z,13.90
2019-04-06T17:37:07.432Z,13.70
2019-04-06T17:39:55.963Z,13.60
2019-04-06T17:42:36.306Z,13.40
2019-04-06T17:45:38.427Z,13.20
2019-04-06T17:48:26.505Z,13.10
2019-04-06T17:51:18.215Z,13.00
2019-04-06T17:54:25.844Z,12.90
2019-04-06T17:57:30.111Z,12.80
2019-04-06T18:00:12.434Z,12.70
2019-04-06T18:02:58.652Z,12.60
2019-04-06T18:05:50.962Z,12.50
2019-04-06T18:08:38.871Z,12.40
2019-04-06T18:11:30.852Z,12.30
2019-04-06T18:14:01.263Z,12.20
2019-04-06T18:16:36.384Z,12.20
2019-04-06T18:19:06.857Z,12.10
2019-04-06T18:21:37.129Z,12.00
2019-04-06T18:24:07.416Z,12.00
2019-04-06T18:26:37.652Z,11.90
2019-04-06T18:29:07.925Z,11.90
2019-04-06T18:32:00.319Z,11.80
2019-04-06T18:34:30.895Z,11.80
2019-04-06T18:37:35.742Z,11.70
2019-04-06T18:40:28.055Z,11.70
2019-04-06T18:42:58.689Z,11.60
2019-04-06T18:45:31.301Z,11.50
2019-04-06T18:48:01.470Z,11.50
2019-04-06T18:50:35.939Z,11.40
2019-04-06T18:53:03.494Z,11.40
2019-04-06T18:55:33.591Z,11.40
2019-04-06T18:58:11.265Z,11.30
2019-04-06T19:00:35.791Z,11.20
2019-04-06T19:03:14.100Z,11.20
2019-04-06T19:05:39.542Z,11.10
2019-04-06T19:08:12.048Z,11.00
2019-04-06T19:10:43.110Z,11.00
2019-04-06T19:13:14.631Z,11.00
2019-04-06T19:15:45.472Z,10.90
2019-04-06T19:18:15.822Z,10.90
2019-04-06T19:20:46.169Z,10.90
2019-04-06T19:23:16.350Z,10.80
2019-04-06T19:25:46.515Z,10.80
2019-04-06T19:28:16.746Z,10.80
2019-04-06T19:30:47.039Z,10.80
2019-04-06T19:33:23.262Z,10.70
2019-04-06T19:35:49.432Z,10.70
2019-04-06T19:38:19.946Z,10.70
2019-04-06T19:40:50.389Z,10.60
2019-04-06T19:43:21.763Z,10.60
2019-04-06T19:45:52.170Z,10.60
2019-04-06T19:48:23.492Z,10.50
2019-04-06T19:50:54.256Z,10.40
2019-04-06T19:53:24.518Z,10.30
2019-04-06T19:55:54.922Z,10.30
2019-04-06T19:58:25.101Z,10.20
2019-04-06T20:00:55.272Z,10.10
2019-04-06T20:03:34.112Z,10.10
2019-04-06T20:05:57.272Z,10.00
2019-04-06T20:08:28.215Z,9.90
2019-04-06T20:10:58.716Z,9.90
2019-04-06T20:13:29.519Z,9.80
2019-04-06T20:15:59.854Z,9.70
2019-04-06T20:18:29.959Z,9.70
2019-04-06T20:21:01.798Z,9.60
2019-04-06T20:23:32.289Z,9.60
2019-04-06T20:26:02.479Z,9.60
2019-04-06T20:28:33.660Z,9.60
2019-04-06T20:31:04.016Z,9.50
2019-04-06T20:33:45.979Z,9.50
2019-04-06T20:36:06.194Z,9.50
2019-04-06T20:38:36.797Z,9.40
2019-04-06T20:41:07.164Z,9.40
2019-04-06T20:43:37.450Z,9.30
2019-04-06T20:46:07.673Z,9.30
2019-04-06T20:48:38.493Z,9.20
2019-04-06T20:51:08.929Z,9.20
2019-04-06T20:53:39.653Z,9.10
2019-04-06T20:56:09.974Z,9.10
2019-04-06T20:58:40.224Z,9.00
2019-04-06T21:01:11.480Z,8.90
2019-04-06T21:03:41.681Z,8.90
2019-04-06T21:06:12.213Z,8.80
2019-04-06T21:08:42.496Z,8.70
2019-04-06T21:11:12.868Z,8.70
2019-04-06T21:13:43.528Z,8.50
2019-04-06T21:16:15.179Z,8.40
2019-04-06T21:18:45.506Z,8.30
2019-04-06T21:21:16.576Z,8.20
2019-04-06T21:23:46.898Z,8.20
2019-04-06T21:26:17.224Z,8.10
2019-04-06T21:28:47.706Z,8.10
2019-04-06T21:31:18.037Z,8.10
2019-04-06T21:33:48.311Z,8.00
2019-04-06T21:36:19.059Z,8.00
2019-04-06T21:38:49.483Z,8.00
2019-04-06T21:41:19.803Z,7.90
2019-04-06T21:43:50.134Z,7.90
2019-04-06T21:46:20.370Z,7.90
2019-04-06T21:48:50.705Z,7.90
2019-04-06T21:51:20.811Z,7.90
2019-04-06T21:53:51.692Z,7.90
2019-04-06T21:56:22.498Z,7.90
2019-04-06T21:58:52.857Z,7.90
2019-04-06T22:01:24.447Z,7.90
2019-04-06T22:03:56.310Z,7.80
2019-04-06T22:06:26.449Z,7.90
2019-04-06T22:08:56.798Z,7.80
2019-04-06T22:11:27.680Z,7.80
2019-04-06T22:13:57.994Z,7.70
2019-04-06T22:16:28.841Z,7.60
2019-04-06T22:18:59.118Z,7.50
2019-04-06T22:21:30.625Z,7.50
2019-04-06T22:24:01.247Z,7.40
2019-04-06T22:26:31.522Z,7.30
2019-04-06T22:29:01.820Z,7.30
2019-04-06T22:31:33.292Z,7.30
2019-04-06T22:34:03.545Z,7.30
2019-04-06T22:36:33.666Z,7.30
2019-04-06T22:39:06.017Z,7.30
2019-04-06T22:41:36.533Z,7.30
2019-04-06T22:44:07.293Z,7.30
2019-04-06T22:46:38.042Z,7.30
2019-04-06T22:49:08.379Z,7.30
2019-04-06T22:51:40.057Z,7.30
2019-04-06T22:54:10.854Z,7.30
2019-04-06T22:56:41.062Z,7.20
2019-04-06T22:59:11.297Z,7.20
2019-04-06T23:01:43.714Z,7.10
2019-04-06T23:04:48.488Z,7.10
2019-04-06T23:07:16.691Z,7.10
2019-04-06T23:09:47.016Z,6.90
2019-04-06T23:12:17.712Z,6.70
2019-04-06T23:14:47.918Z,6.70
2019-04-06T23:17:18.153Z,6.70
2019-04-06T23:19:48.498Z,6.70
2019-04-06T23:22:18.622Z,6.70
2019-04-06T23:24:48.819Z,6.60
2019-04-06T23:27:19.260Z,6.60
2019-04-06T23:29:49.631Z,6.60
2019-04-06T23:32:21.279Z,6.60
2019-04-06T23:34:59.509Z,6.50
2019-04-06T23:37:23.486Z,6.50
2019-04-06T23:39:53.770Z,6.50
2019-04-06T23:42:24.500Z,6.50
2019-04-06T23:44:55.745Z,6.60
2019-04-06T23:47:25.970Z,6.50
2019-04-06T23:49:57.451Z,6.50
2019-04-06T23:52:28.044Z,6.40
2019-04-06T23:54:58.844Z,6.40
2019-04-06T23:57:29.249Z,6.40
2019-04-06T23:59:59.562Z,6.40
